Time;durP1;ratioP1;P1;durP2;ratioP2;P2;SDS_P1;SDS_P2;PMS_P1;PMS_P2;Temp;Humidity;BMP_temperature;BMP_pressure;BME280_temperature;BME280_humidity;BME280_pressure;Samples;Min_cycle;Max_cycle;Signal;HPM_P1;HPM_P2
2021/04/15 00:01:34;;;;;;;6.77;3.60;;;3.60;99.90;;;;;;5043780;28;20547;-53
2021/04/15 00:04:04;;;;;;;4.67;3.23;;;3.50;99.90;;;;;;5027015;28;20474;-55
2021/04/15 00:06:31;;;;;;;5.87;3.27;;;3.50;99.90;;;;;;5033957;28;20489;-54
2021/04/15 00:09:05;;;;;;;6.57;4.07;;;3.50;99.90;;;;;;5029708;28;21230;-51
2021/04/15 00:11:34;;;;;;;7.40;3.37;;;3.40;99.90;;;;;;5041195;28;20877;-54
2021/04/15 00:14:02;;;;;;;5.10;3.80;;;3.30;99.90;;;;;;5050236;28;20486;-52
2021/04/15 00:16:32;;;;;;;5.57;3.67;;;3.40;99.90;;;;;;5050580;28;20473;-52
2021/04/15 00:19:25;;;;;;;4.73;3.27;;;3.30;99.90;;;;;;5049801;28;20997;-54
2021/04/15 00:21:52;;;;;;;3.73;2.93;;;3.20;99.90;;;;;;5049569;28;20567;-54
2021/04/15 00:24:19;;;;;;;7.47;3.50;;;3.20;99.90;;;;;;5034073;28;20519;-52
2021/04/15 00:26:47;;;;;;;4.87;3.40;;;3.30;99.90;;;;;;5030718;28;20477;-52
2021/04/15 00:29:14;;;;;;;3.10;2.80;;;3.20;99.90;;;;;;5030324;28;20528;-52
2021/04/15 00:31:44;;;;;;;4.80;2.83;;;3.20;99.90;;;;;;5028584;28;20474;-54
2021/04/15 00:34:11;;;;;;;3.77;3.10;;;3.30;99.90;;;;;;5030333;28;20482;-51
2021/04/15 00:36:38;;;;;;;3.87;2.97;;;3.20;99.90;;;;;;5030234;28;20483;-55
2021/04/15 00:39:06;;;;;;;4.50;3.30;;;3.20;99.90;;;;;;5029459;28;20862;-53
2021/04/15 00:41:34;;;;;;;6.10;3.67;;;3.00;99.90;;;;;;5029008;28;20474;-54
2021/04/15 00:44:01;;;;;;;6.43;3.20;;;3.00;99.90;;;;;;5040021;28;20488;-52
2021/04/15 00:46:59;;;;;;;3.43;2.90;;;3.00;99.90;;;;;;5049558;28;20489;-54
2021/04/15 00:49:32;;;;;;;6.97;3.60;;;3.00;99.90;;;;;;5049573;28;20914;-55
2021/04/15 00:52:04;;;;;;;6.87;3.60;;;3.10;99.90;;;;;;5049040;28;20479;-52
2021/04/15 00:54:46;;;;;;;3.60;2.60;;;2.90;99.90;;;;;;5049407;28;20988;-54
2021/04/15 00:58:04;;;;;;;3.27;2.43;;;2.70;99.90;;;;;;5049155;28;20483;-54
2021/04/15 01:00:34;;;;;;;2.30;2.10;;;2.60;99.90;;;;;;5029619;28;20985;-54
2021/04/15 01:03:04;;;;;;;3.07;2.13;;;2.70;99.90;;;;;;5027612;28;20490;-54
2021/04/15 01:05:35;;;;;;;3.23;2.43;;;3.00;99.90;;;;;;5029139;28;20492;-52
2021/04/15 01:08:28;;;;;;;4.33;2.73;;;2.70;99.90;;;;;;5028624;28;20500;-55
2021/04/15 01:11:06;;;;;;;4.27;3.17;;;2.80;99.90;;;;;;5029126;28;20467;-54
2021/04/15 01:14:05;;;;;;;5.07;3.43;;;2.80;99.90;;;;;;5020990;28;20487;-55
2021/04/15 01:16:37;;;;;;;3.50;3.20;;;2.70;99.90;;;;;;5009758;28;20670;-55
2021/04/15 01:19:31;;;;;;;3.87;2.80;;;2.70;99.90;;;;;;5029053;28;20474;-54
2021/04/15 01:22:26;;;;;;;4.23;3.53;;;2.70;99.90;;;;;;5045038;28;20473;-53
2021/04/15 01:25:04;;;;;;;5.43;3.70;;;2.90;99.90;;;;;;5009455;28;20476;-53
2021/04/15 01:27:40;;;;;;;5.07;3.57;;;2.90;99.90;;;;;;5009410;28;20497;-52
2021/04/15 01:30:17;;;;;;;5.43;3.63;;;2.90;99.90;;;;;;5023172;28;20525;-52
2021/04/15 01:32:56;;;;;;;4.37;3.70;;;3.00;99.90;;;;;;5028884;28;20550;-51
2021/04/15 01:35:29;;;;;;;5.50;3.70;;;2.80;99.90;;;;;;5029401;28;20557;-54
2021/04/15 01:38:05;;;;;;;5.97;4.37;;;2.70;99.90;;;;;;5028952;28;20481;-55
2021/04/15 01:41:04;;;;;;;4.80;3.87;;;2.60;99.90;;;;;;5027752;28;20490;-55
2021/04/15 01:44:01;;;;;;;8.23;4.90;;;2.60;99.90;;;;;;5029562;28;20481;-52
2021/04/15 01:46:33;;;;;;;7.67;4.80;;;2.80;99.90;;;;;;5028971;28;20481;-54
2021/04/15 01:49:26;;;;;;;6.23;4.60;;;2.60;99.90;;;;;;5008576;28;20480;-55
2021/04/15 01:51:54;;;;;;;8.50;4.37;;;2.60;99.90;;;;;;5006990;28;20549;-52
2021/04/15 01:54:30;;;;;;;6.37;4.60;;;2.50;99.90;;;;;;5009262;28;20467;-55
2021/04/15 01:57:06;;;;;;;5.10;4.20;;;2.30;99.90;;;;;;5011608;28;20487;-54
2021/04/15 02:00:19;;;;;;;6.30;5.13;;;2.40;99.90;;;;;;5021624;28;20611;-53
2021/04/15 02:03:18;;;;;;;6.40;4.57;;;2.60;99.90;;;;;;5026947;28;20527;-54
2021/04/15 02:06:15;;;;;;;6.13;4.40;;;2.70;99.90;;;;;;5027491;28;20910;-55
2021/04/15 02:09:12;;;;;;;7.43;4.97;;;2.70;99.90;;;;;;5027962;28;20527;-54
2021/04/15 02:11:43;;;;;;;7.43;4.43;;;2.70;99.90;;;;;;5027735;28;20468;-54
2021/04/15 02:14:37;;;;;;;7.73;4.70;;;2.80;99.90;;;;;;5034287;28;20475;-52
2021/04/15 02:17:07;;;;;;;8.57;4.80;;;2.60;99.90;;;;;;5048113;28;20878;-51
2021/04/15 02:19:42;;;;;;;4.37;3.97;;;2.50;99.90;;;;;;5047453;28;20640;-53
2021/04/15 02:22:16;;;;;;;5.40;4.73;;;2.40;99.90;;;;;;5047824;28;20477;-54
2021/04/15 02:25:16;;;;;;;5.70;4.97;;;2.50;99.90;;;;;;5047529;28;20474;-54
2021/04/15 02:28:16;;;;;;;5.53;4.80;;;2.40;99.90;;;;;;5047573;28;20593;-53
2021/04/15 02:31:13;;;;;;;8.10;5.10;;;2.30;99.90;;;;;;5046611;28;20460;-54
2021/04/15 02:33:48;;;;;;;6.43;4.77;;;2.40;99.90;;;;;;5047945;28;20821;-52
2021/04/15 02:36:18;;;;;;;5.53;4.97;;;2.40;99.90;;;;;;5028598;28;20473;-53
2021/04/15 02:38:52;;;;;;;5.97;5.27;;;2.50;99.90;;;;;;5027813;28;21024;-53
2021/04/15 02:41:25;;;;;;;6.30;5.70;;;2.60;99.90;;;;;;5026605;28;20476;-55
2021/04/15 02:44:25;;;;;;;6.67;4.83;;;2.60;99.90;;;;;;5031139;28;20881;-56
2021/04/15 02:46:56;;;;;;;7.80;6.13;;;2.40;99.90;;;;;;5047326;28;20477;-55
2021/04/15 02:49:27;;;;;;;6.67;5.40;;;2.50;99.90;;;;;;5047752;28;20884;-54
2021/04/15 02:52:00;;;;;;;6.40;5.17;;;2.30;99.90;;;;;;5046949;28;20491;-55
2021/04/15 02:54:34;;;;;;;6.20;5.50;;;2.50;99.90;;;;;;5043374;28;20491;-51
2021/04/15 02:57:08;;;;;;;6.93;5.47;;;2.40;99.90;;;;;;5024398;28;20475;-52
2021/04/15 02:59:40;;;;;;;7.23;5.37;;;2.30;99.90;;;;;;5029212;28;20994;-54
2021/04/15 03:02:36;;;;;;;6.70;5.40;;;2.30;99.90;;;;;;5026593;28;20630;-53
2021/04/15 03:05:33;;;;;;;5.63;4.20;;;2.00;99.90;;;;;;5031865;28;20486;-55
2021/04/15 03:08:29;;;;;;;5.73;4.63;;;1.90;99.90;;;;;;5046680;28;20476;-55
2021/04/15 03:11:01;;;;;;;5.00;4.17;;;2.00;99.90;;;;;;5046787;28;20555;-54
2021/04/15 03:14:22;;;;;;;6.03;4.93;;;2.00;99.90;;;;;;5044968;28;20887;-55
2021/04/15 03:16:51;;;;;;;8.17;5.23;;;2.20;99.90;;;;;;5048203;28;20481;-52
2021/04/15 03:19:24;;;;;;;7.43;4.80;;;2.20;99.90;;;;;;5051567;28;20468;-56
2021/04/15 03:22:02;;;;;;;6.17;5.17;;;2.30;99.90;;;;;;5050856;28;20502;-55
2021/04/15 03:24:35;;;;;;;7.83;4.80;;;2.10;99.90;;;;;;5050742;28;20467;-54
2021/04/15 03:27:41;;;;;;;5.27;4.77;;;2.00;99.90;;;;;;5051171;28;20485;-55
2021/04/15 03:30:12;;;;;;;7.23;5.53;;;2.00;99.90;;;;;;5050900;28;20486;-55
2021/04/15 03:32:44;;;;;;;7.93;5.50;;;2.20;99.90;;;;;;5047902;28;20502;-52
2021/04/15 03:35:42;;;;;;;7.77;5.37;;;2.10;99.90;;;;;;5011317;28;20992;-52
2021/04/15 03:38:15;;;;;;;5.77;4.67;;;2.10;99.90;;;;;;5011508;28;20468;-55
2021/04/15 03:41:12;;;;;;;7.97;5.57;;;2.20;99.90;;;;;;5010763;28;20587;-55
2021/04/15 03:43:46;;;;;;;6.07;5.23;;;2.00;99.90;;;;;;5031094;28;20464;-56
2021/04/15 03:46:24;;;;;;;7.57;5.30;;;2.10;99.90;;;;;;5051310;28;20469;-55
2021/04/15 03:49:45;;;;;;;7.83;5.67;;;1.90;99.90;;;;;;5050194;28;20827;-54
2021/04/15 03:52:17;;;;;;;7.67;6.10;;;1.80;99.90;;;;;;5050130;28;20478;-52
2021/04/15 03:55:21;;;;;;;7.07;6.37;;;2.00;99.90;;;;;;5025722;28;20618;-56
2021/04/15 03:57:54;;;;;;;6.93;5.70;;;2.00;99.90;;;;;;5028404;28;20530;-53
2021/04/15 04:00:51;;;;;;;6.97;5.90;;;2.00;99.90;;;;;;5022196;28;20480;-55
2021/04/15 04:03:23;;;;;;;8.83;5.87;;;2.10;99.90;;;;;;5030855;28;20530;-54
2021/04/15 04:06:42;;;;;;;23.03;12.90;;;2.10;99.90;;;;;;5030227;28;21020;-55
2021/04/15 04:09:40;;;;;;;21.00;12.80;;;2.10;99.90;;;;;;5030135;28;20493;-54
2021/04/15 04:12:40;;;;;;;28.80;13.87;;;2.10;99.90;;;;;;5030266;28;20590;-55
2021/04/15 04:15:13;;;;;;;23.30;13.73;;;2.20;99.90;;;;;;5050386;28;20994;-54
2021/04/15 04:18:03;;;;;;;20.57;13.53;;;2.10;99.90;;;;;;5050008;28;20472;-54
2021/04/15 04:21:03;;;;;;;19.57;12.50;;;2.20;99.90;;;;;;5049674;28;20478;-54
2021/04/15 04:23:41;;;;;;;21.80;13.20;;;2.30;99.90;;;;;;5049129;28;20490;-55
2021/04/15 04:26:19;;;;;;;20.90;12.93;;;2.20;99.90;;;;;;5050489;28;20474;-56
2021/04/15 04:29:38;;;;;;;20.23;13.13;;;2.20;99.90;;;;;;5048967;28;21067;-54
2021/04/15 04:32:33;;;;;;;14.70;9.37;;;1.90;99.90;;;;;;5048703;28;20596;-51
2021/04/15 04:35:04;;;;;;;14.13;9.80;;;1.90;99.90;;;;;;5029674;28;20924;-53
2021/04/15 04:37:38;;;;;;;14.87;10.10;;;1.90;99.90;;;;;;5028303;28;20489;-52
2021/04/15 04:40:14;;;;;;;15.17;10.03;;;1.90;99.90;;;;;;5029653;28;20835;-55
2021/04/15 04:42:46;;;;;;;14.10;10.27;;;1.90;99.90;;;;;;5029905;28;20894;-54
2021/04/15 04:45:17;;;;;;;13.73;9.73;;;1.90;99.90;;;;;;5030831;28;20873;-55
2021/04/15 04:47:52;;;;;;;15.13;9.23;;;1.60;99.90;;;;;;5029285;28;20515;-53
2021/04/15 04:50:33;;;;;;;11.60;8.07;;;1.40;99.90;;;;;;5026350;28;20999;-55
2021/04/15 04:53:05;;;;;;;12.50;9.43;;;1.50;99.90;;;;;;5027960;28;21052;-55
2021/04/15 04:55:39;;;;;;;12.97;10.43;;;2.00;99.90;;;;;;5029669;28;21043;-55
2021/04/15 04:58:12;;;;;;;13.03;9.63;;;2.00;99.90;;;;;;5029599;28;20876;-55
2021/04/15 05:00:44;;;;;;;18.13;11.97;;;2.20;99.90;;;;;;5009041;28;20972;-55
2021/04/15 05:03:19;;;;;;;18.53;11.97;;;2.30;99.90;;;;;;5021604;28;20471;-55
2021/04/15 05:05:48;;;;;;;20.90;13.90;;;2.20;99.90;;;;;;5049529;28;20831;-56
2021/04/15 05:08:22;;;;;;;25.17;14.87;;;2.40;99.90;;;;;;5049558;28;20582;-53
2021/04/15 05:11:14;;;;;;;21.33;14.07;;;2.50;99.90;;;;;;5048502;28;20502;-55
2021/04/15 05:13:42;;;;;;;21.83;13.77;;;2.60;99.90;;;;;;5048425;28;20480;-52
2021/04/15 05:16:10;;;;;;;21.07;14.30;;;2.50;99.90;;;;;;5030154;28;20482;-55
2021/04/15 05:19:03;;;;;;;19.73;13.33;;;2.40;99.90;;;;;;5026793;28;20482;-55
2021/04/15 05:21:33;;;;;;;17.53;12.10;;;2.60;99.90;;;;;;5024492;28;20503;-53
2021/04/15 05:24:12;;;;;;;15.67;10.60;;;2.50;99.90;;;;;;5030930;28;20482;-55
2021/04/15 05:27:06;;;;;;;18.00;11.43;;;2.50;99.90;;;;;;5028762;28;20910;-55
2021/04/15 05:29:40;;;;;;;17.67;12.97;;;2.60;99.90;;;;;;5034516;28;20882;-56
2021/04/15 05:32:10;;;;;;;16.30;11.63;;;2.90;99.90;;;;;;5025336;28;20577;-55
2021/04/15 05:35:06;;;;;;;14.57;11.53;;;2.80;99.90;;;;;;5026023;28;20582;-55
2021/04/15 05:37:57;;;;;;;18.70;11.87;;;3.00;99.90;;;;;;5027719;28;20479;-53
2021/04/15 05:40:53;;;;;;;13.93;11.50;;;3.20;99.90;;;;;;5025872;28;20503;-55
2021/04/15 05:43:36;;;;;;;13.50;10.83;;;3.20;99.90;;;;;;5028871;28;20486;-55
2021/04/15 05:46:45;;;;;;;11.77;8.90;;;3.00;99.90;;;;;;5026556;28;21007;-55
2021/04/15 05:49:44;;;;;;;9.67;7.60;;;3.00;99.90;;;;;;5021424;28;20619;-54
2021/04/15 05:52:25;;;;;;;8.50;7.53;;;3.00;99.90;;;;;;5032099;28;20862;-56
2021/04/15 05:55:22;;;;;;;9.20;7.27;;;3.00;99.90;;;;;;5025567;28;20549;-54
2021/04/15 05:58:19;;;;;;;9.93;7.00;;;3.00;99.90;;;;;;5032556;28;20848;-51
2021/04/15 06:00:53;;;;;;;8.00;7.20;;;3.10;99.90;;;;;;5025721;28;20478;-54
2021/04/15 06:04:20;;;;;;;8.33;6.93;;;3.10;99.90;;;;;;5027372;28;20470;-51
2021/04/15 06:06:48;;;;;;;8.17;7.03;;;3.20;99.90;;;;;;5027478;28;20787;-53
2021/04/15 06:13:13;;;;;;;7.47;6.43;;;3.40;99.90;;;;;;5026646;28;20485;-53
2021/04/15 06:16:09;;;;;;;8.17;7.00;;;3.50;99.90;;;;;;5029151;28;20609;-55
2021/04/15 06:19:06;;;;;;;6.93;6.23;;;3.70;99.90;;;;;;5027352;28;20484;-50
2021/04/15 06:21:41;;;;;;;9.33;6.63;;;3.90;99.90;;;;;;5025777;28;20494;-53
2021/04/15 06:24:14;;;;;;;8.73;7.03;;;4.10;99.90;;;;;;5028257;28;20476;-51
2021/04/15 06:26:47;;;;;;;8.80;6.93;;;4.20;99.90;;;;;;5027663;28;21015;-55
2021/04/15 06:29:26;;;;;;;8.20;7.13;;;4.30;99.90;;;;;;5027252;28;20522;-53
2021/04/15 06:31:57;;;;;;;7.13;6.53;;;4.50;99.90;;;;;;5022267;28;21001;-51
2021/04/15 06:34:27;;;;;;;7.73;6.67;;;4.60;99.90;;;;;;5023647;28;20475;-51
2021/04/15 06:37:02;;;;;;;10.30;6.97;;;4.70;99.90;;;;;;5026625;28;20564;-52
2021/04/15 06:39:59;;;;;;;8.27;7.30;;;4.80;99.90;;;;;;5018595;28;20564;-53
2021/04/15 06:43:05;;;;;;;8.47;6.70;;;5.00;99.90;;;;;;5031992;28;20474;-55
2021/04/15 06:46:24;;;;;;;8.23;6.90;;;5.20;99.90;;;;;;5026166;28;20560;-55
2021/04/15 06:49:35;;;;;;;8.07;7.27;;;5.50;99.90;;;;;;5023677;28;20476;-54
2021/04/15 06:52:42;;;;;;;8.43;7.27;;;5.80;99.90;;;;;;5024644;28;20855;-55
2021/04/15 06:55:32;;;;;;;11.10;7.50;;;6.10;99.90;;;;;;5027771;28;20573;-52
2021/04/15 06:58:43;;;;;;;8.77;6.90;;;6.20;99.90;;;;;;5009188;28;20552;-51
2021/04/15 07:01:22;;;;;;;9.13;7.30;;;6.40;99.90;;;;;;5044265;28;20234;-52
2021/04/15 07:04:15;;;;;;;12.53;7.77;;;6.40;99.90;;;;;;5046935;28;20469;-52
2021/04/15 07:06:49;;;;;;;8.77;7.87;;;6.60;99.90;;;;;;5044103;28;20524;-54
2021/04/15 07:09:54;;;;;;;8.23;7.43;;;6.70;99.90;;;;;;5046849;28;20762;-52
2021/04/15 07:13:07;;;;;;;7.80;7.00;;;7.00;99.90;;;;;;5046542;28;20243;-54
2021/04/15 07:15:54;;;;;;;7.87;7.07;;;7.20;99.90;;;;;;5016993;28;20243;-53
2021/04/15 07:19:13;;;;;;;9.03;7.10;;;7.50;99.90;;;;;;5017060;28;20238;-51
2021/04/15 07:22:52;;;;;;;8.90;6.40;;;7.60;99.90;;;;;;5023237;28;20596;-53
2021/04/15 07:26:31;;;;;;;7.03;5.97;;;7.90;99.90;;;;;;5029183;28;20243;-51
2021/04/15 07:30:17;;;;;;;8.13;5.80;;;8.00;99.90;;;;;;5032656;28;20543;-52
2021/04/15 07:33:26;;;;;;;9.37;6.70;;;8.00;99.90;;;;;;4998890;28;20245;-51
2021/04/15 07:37:28;;;;;;;6.33;5.57;;;7.90;99.90;;;;;;5037478;28;20265;-52
2021/04/15 07:40:24;;;;;;;8.17;5.80;;;8.30;99.90;;;;;;5038927;28;20651;-51
2021/04/15 07:43:10;;;;;;;6.47;5.37;;;8.70;99.90;;;;;;5037251;28;20228;-52
2021/04/15 07:45:43;;;;;;;4.17;3.77;;;8.60;99.90;;;;;;5025685;28;20298;-50
2021/04/15 07:49:24;;;;;;;5.27;3.73;;;9.00;99.90;;;;;;5025374;28;20282;-51
2021/04/15 07:53:06;;;;;;;6.40;4.07;;;9.10;99.90;;;;;;5002921;28;20647;-53
2021/04/15 07:56:02;;;;;;;4.80;3.83;;;9.30;99.90;;;;;;5045324;28;20235;-52
2021/04/15 07:58:49;;;;;;;5.03;3.80;;;9.60;99.90;;;;;;5042181;28;20289;-53
2021/04/15 08:01:37;;;;;;;4.00;3.33;;;9.80;99.90;;;;;;5044166;28;20594;-52
2021/04/15 08:05:46;;;;;;;5.10;3.67;;;10.00;99.90;;;;;;5049586;28;20694;-52
2021/04/15 08:09:10;;;;;;;4.17;3.50;;;9.70;99.90;;;;;;5006892;28;20239;-54
2021/04/15 08:11:48;;;;;;;5.63;3.70;;;9.80;99.90;;;;;;5019057;28;20241;-51
2021/04/15 08:14:56;;;;;;;5.33;3.30;;;9.50;99.90;;;;;;5031246;28;20249;-51
2021/04/15 08:17:38;;;;;;;6.67;3.90;;;9.50;99.90;;;;;;5036428;28;20651;-54
2021/04/15 08:21:22;;;;;;;8.23;3.60;;;9.80;99.90;;;;;;5048447;28;20248;-51
2021/04/15 08:24:31;;;;;;;4.40;3.10;;;10.20;99.90;;;;;;5049424;28;20703;-51
2021/04/15 08:27:58;;;;;;;4.50;3.83;;;10.60;99.90;;;;;;5026400;28;20291;-54
2021/04/15 08:30:51;;;;;;;4.27;3.27;;;10.80;99.90;;;;;;4947961;28;20254;-52
2021/04/15 08:33:33;;;;;;;4.43;3.43;;;11.10;99.90;;;;;;4968012;28;20293;-53
2021/04/15 08:36:36;;;;;;;6.17;3.90;;;11.30;99.90;;;;;;5000111;28;20287;-54
2021/04/15 08:39:20;;;;;;;7.37;3.80;;;10.90;99.90;;;;;;5024867;28;20697;-53
2021/04/15 08:42:00;;;;;;;4.60;3.17;;;11.00;99.90;;;;;;5032602;28;20268;-52
2021/04/15 08:44:46;;;;;;;5.83;2.80;;;10.70;99.90;;;;;;5028320;28;20644;-51
2021/04/15 08:47:28;;;;;;;2.93;2.60;;;10.50;99.90;;;;;;5027801;28;20367;-52
2021/04/15 08:50:04;;;;;;;3.00;2.47;;;11.10;99.90;;;;;;5022626;28;20241;-50
2021/04/15 08:52:41;;;;;;;3.40;2.83;;;11.30;99.90;;;;;;5029084;28;20270;-53
2021/04/15 08:55:24;;;;;;;3.97;3.17;;;11.20;99.90;;;;;;5030908;28;20238;-51
2021/04/15 08:58:11;;;;;;;3.30;2.27;;;11.30;99.90;;;;;;5029693;28;20232;-53
2021/04/15 09:00:46;;;;;;;3.20;2.30;;;11.50;99.90;;;;;;5031448;28;20246;-52
2021/04/15 09:03:25;;;;;;;4.97;2.50;;;11.60;99.90;;;;;;5026652;28;20244;-54
2021/04/15 09:06:18;;;;;;;3.00;2.17;;;11.60;99.90;;;;;;5024991;28;20239;-50
2021/04/15 09:09:16;;;;;;;2.73;2.03;;;12.20;99.90;;;;;;5028507;28;20645;-54
2021/04/15 09:12:17;;;;;;;3.40;2.33;;;12.50;99.90;;;;;;5026406;28;20227;-52
2021/04/15 09:15:06;;;;;;;3.00;2.03;;;12.60;99.90;;;;;;5038563;28;20253;-51
2021/04/15 09:17:37;;;;;;;2.47;1.70;;;12.30;99.90;;;;;;5027476;28;20299;-52
2021/04/15 09:20:13;;;;;;;1.63;1.53;;;12.00;99.90;;;;;;5028778;28;20245;-51
2021/04/15 09:23:13;;;;;;;1.47;1.37;;;11.90;99.90;;;;;;5028276;28;20248;-52
2021/04/15 09:25:54;;;;;;;2.27;1.50;;;11.60;99.90;;;;;;5037792;28;20245;-50
2021/04/15 09:28:33;;;;;;;1.30;1.17;;;11.70;99.90;;;;;;5028748;28;20302;-51
2021/04/15 09:31:11;;;;;;;1.47;1.00;;;11.60;99.90;;;;;;5027497;28;20710;-50
2021/04/15 09:34:17;;;;;;;1.53;1.03;;;11.90;99.90;;;;;;5028169;28;20291;-51
2021/04/15 09:37:03;;;;;;;1.47;1.07;;;11.90;99.90;;;;;;5027649;28;20658;-51
2021/04/15 09:39:49;;;;;;;1.50;1.20;;;12.10;99.90;;;;;;5028316;28;20911;-50
2021/04/15 09:42:52;;;;;;;2.00;1.10;;;12.70;99.90;;;;;;5036364;28;20291;-51
2021/04/15 09:45:36;;;;;;;1.80;1.03;;;12.80;99.90;;;;;;5038369;28;20246;-50
2021/04/15 09:48:46;;;;;;;1.30;1.00;;;12.40;99.90;;;;;;5048607;28;20238;-51
2021/04/15 09:51:47;;;;;;;1.17;1.00;;;13.10;99.90;;;;;;5044680;28;20242;-50
2021/04/15 09:54:26;;;;;;;1.07;0.97;;;13.40;99.90;;;;;;5030208;28;20687;-50
2021/04/15 09:57:21;;;;;;;2.47;1.20;;;13.00;99.90;;;;;;5047423;28;20343;-50
2021/04/15 10:00:08;;;;;;;1.67;1.10;;;12.60;99.90;;;;;;5043064;28;20313;-51
2021/04/15 10:02:55;;;;;;;2.37;1.20;;;12.60;99.90;;;;;;5046773;28;20266;-50
2021/04/15 10:05:52;;;;;;;1.27;1.10;;;13.10;99.90;;;;;;5036663;28;20588;-51
2021/04/15 10:08:29;;;;;;;2.27;1.23;;;13.10;99.90;;;;;;5026624;28;20641;-52
2021/04/15 10:11:14;;;;;;;2.83;1.20;;;13.60;99.90;;;;;;5030607;28;20805;-50
2021/04/15 10:14:09;;;;;;;1.40;1.30;;;13.70;99.90;;;;;;5026827;28;20259;-50
2021/04/15 10:16:47;;;;;;;2.93;1.33;;;13.70;99.90;;;;;;5027950;28;20401;-50
2021/04/15 10:19:59;;;;;;;1.63;1.07;;;13.40;99.90;;;;;;5027203;28;20268;-51
2021/04/15 10:22:44;;;;;;;1.63;1.20;;;13.10;99.90;;;;;;4988311;28;20281;-51
2021/04/15 10:25:17;;;;;;;1.50;0.97;;;12.70;99.90;;;;;;5029888;28;20241;-50
2021/04/15 10:28:26;;;;;;;1.40;1.00;;;12.30;99.90;;;;;;5045880;28;20718;-50
2021/04/15 10:31:37;;;;;;;0.97;0.70;;;12.80;99.90;;;;;;5041320;28;20288;-50
2021/04/15 10:34:39;;;;;;;1.33;0.80;;;13.10;93.30;;;;;;5025370;28;20286;-52
2021/04/15 10:37:45;;;;;;;1.93;1.40;;;13.40;95.00;;;;;;5025806;28;20232;-51
2021/04/15 10:40:42;;;;;;;1.50;1.13;;;13.90;92.80;;;;;;5028408;28;20249;-51
2021/04/15 10:43:44;;;;;;;1.73;0.90;;;14.00;94.70;;;;;;5021042;28;20255;-51
2021/04/15 10:46:44;;;;;;;2.23;1.23;;;14.60;93.10;;;;;;5032667;28;20683;-50
2021/04/15 10:49:34;;;;;;;1.23;1.13;;;15.10;93.90;;;;;;5027120;28;20333;-50
2021/04/15 10:52:16;;;;;;;1.43;1.07;;;14.20;92.30;;;;;;5005793;28;20732;-51
2021/04/15 10:54:44;;;;;;;2.47;1.50;;;13.80;93.80;;;;;;5012330;28;20239;-50
2021/04/15 10:57:18;;;;;;;1.30;1.13;;;13.80;95.00;;;;;;5026100;28;20733;-51
2021/04/15 10:59:49;;;;;;;2.10;1.20;;;14.70;95.90;;;;;;5040568;28;20239;-50
2021/04/15 11:02:34;;;;;;;1.43;1.33;;;15.30;95.90;;;;;;5026613;28;20271;-51
2021/04/15 11:05:29;;;;;;;1.43;1.10;;;15.70;92.80;;;;;;5022699;28;20255;-53
2021/04/15 11:08:06;;;;;;;1.93;1.27;;;15.30;91.10;;;;;;5025052;28;20263;-49
2021/04/15 11:10:36;;;;;;;1.37;1.03;;;15.20;92.20;;;;;;5022782;28;20637;-50
2021/04/15 11:13:24;;;;;;;1.73;1.40;;;15.60;94.60;;;;;;5027013;28;20229;-51
2021/04/15 11:15:54;;;;;;;1.70;1.10;;;16.00;94.10;;;;;;5025762;28;20243;-51
2021/04/15 11:18:26;;;;;;;3.03;1.20;;;15.60;90.60;;;;;;5022295;28;20288;-50
2021/04/15 11:21:16;;;;;;;1.53;1.07;;;14.80;90.30;;;;;;5026432;28;20240;-53
2021/04/15 11:23:44;;;;;;;2.50;1.20;;;14.10;91.10;;;;;;5026624;28;20240;-50
2021/04/15 11:26:20;;;;;;;1.77;1.10;;;14.00;92.40;;;;;;5031470;28;20239;-50
2021/04/15 11:28:51;;;;;;;1.43;1.33;;;13.50;93.10;;;;;;5028259;28;20244;-54
2021/04/15 11:31:37;;;;;;;1.70;1.20;;;13.20;94.10;;;;;;5026105;28;20280;-52
2021/04/15 11:34:12;;;;;;;2.20;0.97;;;13.20;93.80;;;;;;5028586;28;20240;-53
2021/04/15 11:36:51;;;;;;;2.97;1.37;;;13.10;94.70;;;;;;5025820;28;20726;-50
2021/04/15 11:39:23;;;;;;;1.80;1.00;;;13.40;97.10;;;;;;5029675;28;20314;-52
2021/04/15 11:41:57;;;;;;;1.60;1.10;;;13.80;91.00;;;;;;5032765;28;20587;-54
2021/04/15 11:44:32;;;;;;;1.90;0.80;;;13.60;91.30;;;;;;5029674;28;20252;-52
2021/04/15 11:47:03;;;;;;;1.67;0.80;;;13.60;92.00;;;;;;5034395;28;20256;-50
2021/04/15 11:49:35;;;;;;;2.23;0.80;;;13.10;91.90;;;;;;5033984;28;21113;-51
2021/04/15 11:52:17;;;;;;;1.17;0.97;;;12.70;94.00;;;;;;5032307;28;20305;-50
2021/04/15 11:55:00;;;;;;;1.60;1.20;;;12.20;94.70;;;;;;5033996;28;20282;-51
2021/04/15 11:57:33;;;;;;;2.83;1.30;;;11.80;96.40;;;;;;5029119;28;20247;-51
2021/04/15 12:00:18;;;;;;;1.47;1.00;;;11.40;96.20;;;;;;5028535;28;20270;-50
2021/04/15 12:02:50;;;;;;;1.30;1.20;;;11.10;97.00;;;;;;5027286;28;21605;-50
2021/04/15 12:05:27;;;;;;;1.77;1.20;;;11.10;97.80;;;;;;5027681;28;20651;-50
2021/04/15 12:07:59;;;;;;;2.73;1.10;;;11.10;98.10;;;;;;5022886;28;20236;-51
2021/04/15 12:10:30;;;;;;;2.33;1.43;;;11.10;98.30;;;;;;5027672;28;20244;-50
2021/04/15 12:13:03;;;;;;;1.83;1.40;;;11.10;98.70;;;;;;5034632;28;20317;-53
2021/04/15 12:15:36;;;;;;;1.73;1.40;;;11.20;99.80;;;;;;5029791;28;20251;-51
2021/04/15 12:18:14;;;;;;;1.40;1.30;;;11.30;99.60;;;;;;5031009;28;20251;-50
2021/04/15 12:20:51;;;;;;;1.83;1.37;;;11.30;99.90;;;;;;5029650;28;20324;-50
2021/04/15 12:23:29;;;;;;;1.43;1.30;;;11.10;99.90;;;;;;5039625;28;20703;-50
2021/04/15 12:26:22;;;;;;;2.00;1.00;;;10.90;99.90;;;;;;5043789;28;20317;-50
2021/04/15 12:29:04;;;;;;;1.27;1.17;;;10.50;99.90;;;;;;5048913;28;20770;-50
2021/04/15 12:31:38;;;;;;;2.00;1.27;;;10.40;99.90;;;;;;5040995;28;20307;-51
2021/04/15 12:34:23;;;;;;;2.07;1.30;;;10.30;99.90;;;;;;5032648;28;20233;-51
2021/04/15 12:36:59;;;;;;;1.30;1.17;;;10.30;99.90;;;;;;5027487;28;20243;-51
2021/04/15 12:39:46;;;;;;;2.70;1.27;;;10.30;99.90;;;;;;5029128;28;20598;-52
2021/04/15 12:42:53;;;;;;;2.35;1.25;;;10.20;99.90;;;;;;4283077;28;10000913;-53
2021/04/15 12:45:28;;;;;;;1.35;1.20;;;10.10;99.90;;;;;;2422886;28;10002149;-50
2021/04/15 12:47:57;;;;;;;1.63;1.20;;;10.10;99.90;;;;;;5037836;28;20242;-50
2021/04/15 12:50:27;;;;;;;2.30;1.47;;;10.10;99.90;;;;;;5048259;28;20316;-50
2021/04/15 12:52:55;;;;;;;1.53;1.33;;;10.20;99.90;;;;;;5044808;28;20242;-51
2021/04/15 12:55:26;;;;;;;3.60;1.23;;;10.40;99.90;;;;;;5029317;28;20251;-50
2021/04/15 12:57:56;;;;;;;1.90;1.20;;;10.50;99.90;;;;;;5029762;28;20247;-55
2021/04/15 13:00:36;;;;;;;1.57;1.33;;;10.70;99.90;;;;;;5036138;28;20625;-50
2021/04/15 13:03:20;;;;;;;2.17;1.20;;;10.80;99.90;;;;;;5047595;28;20230;-50
2021/04/15 13:06:03;;;;;;;1.30;1.00;;;10.90;99.90;;;;;;5043965;28;20253;-52
2021/04/15 13:08:47;;;;;;;3.70;0.93;;;11.00;96.70;;;;;;5020149;28;20266;-52
2021/04/15 13:11:48;;;;;;;1.50;1.00;;;11.10;97.20;;;;;;5030720;28;20361;-51
2021/04/15 13:14:38;;;;;;;1.23;0.97;;;11.30;98.90;;;;;;5028385;28;20235;-50
2021/04/15 13:17:07;;;;;;;1.30;1.10;;;11.20;96.60;;;;;;5041307;28;20799;-51
2021/04/15 13:19:52;;;;;;;2.03;0.90;;;11.00;97.40;;;;;;5031870;28;20242;-52
2021/04/15 13:22:32;;;;;;;1.83;1.17;;;10.80;97.50;;;;;;5049049;28;20267;-51
2021/04/15 13:25:20;;;;;;;1.23;1.13;;;10.90;99.30;;;;;;5032967;28;20254;-53
2021/04/15 13:28:11;;;;;;;2.93;1.10;;;10.80;98.50;;;;;;5028168;28;20240;-53
2021/04/15 13:31:02;;;;;;;1.50;1.10;;;10.80;99.90;;;;;;5028334;28;20555;-53
2021/04/15 13:34:05;;;;;;;2.23;1.00;;;10.70;98.10;;;;;;5030538;28;20568;-51
2021/04/15 13:36:34;;;;;;;1.87;1.17;;;10.60;99.60;;;;;;5030077;28;20290;-52
2021/04/15 13:39:09;;;;;;;1.10;1.00;;;10.50;99.30;;;;;;5043125;28;20276;-52
2021/04/15 13:41:46;;;;;;;1.27;1.00;;;10.60;99.90;;;;;;5026932;28;20236;-51
2021/04/15 13:45:16;;;;;;;2.50;1.30;;;10.70;99.90;;;;;;5031261;28;20238;-52
2021/04/15 13:47:54;;;;;;;1.57;1.27;;;10.80;99.90;;;;;;4987539;28;20241;-52
2021/04/15 13:51:09;;;;;;;1.30;1.07;;;10.70;99.80;;;;;;5027708;28;20272;-52
2021/04/15 13:54:08;;;;;;;1.60;1.00;;;10.40;98.90;;;;;;5010639;28;20360;-52
2021/04/15 13:57:05;;;;;;;2.37;1.20;;;10.20;98.70;;;;;;5018793;28;21032;-52
2021/04/15 14:00:03;;;;;;;2.00;1.17;;;10.20;99.10;;;;;;5016101;28;20614;-53
2021/04/15 14:02:52;;;;;;;1.17;1.03;;;10.10;99.40;;;;;;5004761;28;20589;-51
2021/04/15 14:05:44;;;;;;;1.03;0.93;;;10.10;99.30;;;;;;5020731;28;20249;-51
2021/04/15 14:08:57;;;;;;;1.30;1.00;;;10.20;99.90;;;;;;5017831;28;20780;-55
2021/04/15 14:11:48;;;;;;;1.53;1.03;;;10.20;99.90;;;;;;5007103;28;20969;-54
2021/04/15 14:14:44;;;;;;;2.33;1.00;;;10.30;98.80;;;;;;5017757;28;20321;-54
2021/04/15 14:17:22;;;;;;;2.90;1.10;;;10.50;99.70;;;;;;5017606;28;20246;-50
2021/04/15 14:20:07;;;;;;;1.67;0.93;;;10.60;99.30;;;;;;5023909;28;20717;-54
2021/04/15 14:22:39;;;;;;;2.40;1.10;;;10.60;99.50;;;;;;5020089;28;20741;-54
2021/04/15 14:25:15;;;;;;;1.73;1.10;;;10.70;99.80;;;;;;5017532;28;20894;-55
2021/04/15 14:27:43;;;;;;;1.00;0.90;;;10.60;98.60;;;;;;5018465;28;20236;-51
2021/04/15 14:30:17;;;;;;;1.53;1.10;;;10.60;98.40;;;;;;5014254;28;20356;-52
2021/04/15 14:32:45;;;;;;;1.63;1.10;;;10.60;99.90;;;;;;5017851;28;20860;-52